Terminal Aerodrome Forecast
Issued by NWS

Home | Current Version | Previous Version | Graphics & Text | Print | Product List | Glossary On
Versions: 1 2 3 4 5 6 7 8 9 10 11 12 13 14 15 16 17 18 19
000
FTUS43 KMPX 260700 AAA
TAFAXN
TAF AMD
KAXN 260720Z 2607/2706 09008KT P6SM OVC035
     FM260800 05009KT 6SM -SN BR OVC035
     FM261030 02010KT 2SM -SN BR OVC012
     FM261400 36013KT 6SM -SN OVC012
     FM261900 34014KT P6SM SCT012 BKN050
     FM270000 34008KT P6SM SKC=

USA.gov is the U.S. government's official web portal to all federal, state and local government web resources and services.